createdAt,value
2023-05-02T00:01:04.812Z,1.50
2023-05-02T00:03:48.358Z,1.80
2023-05-02T00:06:39.308Z,2.00
2023-05-02T00:09:46.849Z,1.60
2023-05-02T00:12:26.334Z,1.50
2023-05-02T00:15:16.772Z,1.80
2023-05-02T00:17:54.362Z,1.40
2023-05-02T00:20:57.389Z,1.60
2023-05-02T00:23:43.189Z,1.90
2023-05-02T00:26:24.895Z,1.30
2023-05-02T00:28:58.237Z,1.40
2023-05-02T00:31:32.813Z,1.60
2023-05-02T00:34:40.105Z,2.00
2023-05-02T00:37:15.388Z,2.20
2023-05-02T00:39:53.864Z,1.90
2023-05-02T00:42:35.826Z,1.50
2023-05-02T00:45:19.236Z,1.30
2023-05-02T00:47:55.425Z,1.50
2023-05-02T00:50:31.849Z,1.90
2023-05-02T00:53:05.843Z,2.00
2023-05-02T00:55:41.903Z,1.60
2023-05-02T01:02:05.340Z,1.70
2023-05-02T01:05:19.839Z,1.40
2023-05-02T01:08:22.785Z,1.40
2023-05-02T01:11:22.533Z,1.70
2023-05-02T01:14:02.008Z,1.50
2023-05-02T01:18:00.111Z,1.50
2023-05-02T01:20:44.888Z,1.50
2023-05-02T01:23:28.146Z,1.10
2023-05-02T01:26:40.135Z,1.80
2023-05-02T01:29:17.019Z,1.70
2023-05-02T01:32:03.279Z,1.40
2023-05-02T01:34:46.493Z,1.30
2023-05-02T01:37:23.571Z,1.40
2023-05-02T01:39:57.374Z,1.60
2023-05-02T01:42:27.883Z,1.10
2023-05-02T01:45:15.774Z,1.60
2023-05-02T01:48:22.196Z,1.70
2023-05-02T01:51:03.105Z,1.40
2023-05-02T01:54:18.744Z,1.70
2023-05-02T01:56:56.666Z,1.60
2023-05-02T01:59:43.084Z,1.70
2023-05-02T02:02:36.408Z,1.30
2023-05-02T02:08:11.747Z,1.90
2023-05-02T02:11:22.649Z,1.50
2023-05-02T02:18:01.561Z,1.60
2023-05-02T02:25:39.424Z,1.70
2023-05-02T02:28:27.761Z,1.40
2023-05-02T02:31:22.889Z,1.40
2023-05-02T02:33:58.935Z,1.60
2023-05-02T02:37:14.004Z,1.60
2023-05-02T02:40:03.850Z,1.70
2023-05-02T02:43:40.567Z,2.30
2023-05-02T02:47:15.486Z,2.20
2023-05-02T02:49:58.947Z,2.50
2023-05-02T02:53:18.105Z,2.30
2023-05-02T02:56:08.054Z,1.70
2023-05-02T02:59:17.856Z,1.50
2023-05-02T03:02:16.812Z,2.50
2023-05-02T03:04:47.154Z,3.20
2023-05-02T03:07:42.450Z,6.40
2023-05-02T03:11:09.402Z,8.30
2023-05-02T03:14:31.461Z,5.00
2023-05-02T03:17:38.641Z,5.60
2023-05-02T03:20:37.052Z,4.80
2023-05-02T03:23:20.002Z,3.60
2023-05-02T03:25:57.881Z,3.20
2023-05-02T03:29:36.098Z,2.30
2023-05-02T03:32:15.965Z,2.30
2023-05-02T03:35:07.899Z,2.60
2023-05-02T03:40:45.191Z,2.50
2023-05-02T03:43:22.705Z,2.80
2023-05-02T03:46:07.807Z,2.40
2023-05-02T03:49:01.738Z,2.90
2023-05-02T03:52:23.582Z,2.70
2023-05-02T03:55:12.138Z,2.30
2023-05-02T03:58:58.582Z,2.10
2023-05-02T04:01:55.278Z,1.80
2023-05-02T04:04:57.930Z,2.10
2023-05-02T04:07:44.629Z,2.00
2023-05-02T04:10:25.559Z,2.20
2023-05-02T04:13:28.949Z,2.30
2023-05-02T04:16:32.634Z,1.50
2023-05-02T04:23:59.448Z,1.70
2023-05-02T04:26:46.977Z,2.00
2023-05-02T04:29:20.685Z,2.10
2023-05-02T04:32:02.264Z,2.00
2023-05-02T04:34:38.467Z,2.10
2023-05-02T04:37:26.351Z,2.00
2023-05-02T04:40:24.062Z,1.90
2023-05-02T04:43:15.516Z,1.70
2023-05-02T04:46:18.877Z,1.40
2023-05-02T04:49:43.947Z,1.40
2023-05-02T04:52:42.674Z,1.20
2023-05-02T04:55:25.928Z,1.30
2023-05-02T04:58:50.482Z,2.10
2023-05-02T05:01:31.032Z,1.40
2023-05-02T05:04:05.312Z,1.70
2023-05-02T05:10:18.850Z,1.80
2023-05-02T05:13:20.090Z,1.80
2023-05-02T05:16:02.186Z,1.60
2023-05-02T05:22:52.403Z,1.70
2023-05-02T05:26:19.686Z,1.30
2023-05-02T05:29:15.488Z,1.50
2023-05-02T05:32:51.193Z,1.30
2023-05-02T05:43:04.766Z,1.50
2023-05-02T05:46:39.355Z,1.60
2023-05-02T05:53:29.969Z,1.50
2023-05-02T06:01:19.537Z,2.00
2023-05-02T06:04:20.544Z,1.40
2023-05-02T06:13:06.893Z,1.50
2023-05-02T06:23:19.304Z,1.60
2023-05-02T06:35:21.533Z,1.70
2023-05-02T06:42:17.129Z,1.70
2023-05-02T06:45:17.707Z,1.70
2023-05-02T06:47:51.688Z,1.50
2023-05-02T06:50:57.321Z,1.60
2023-05-02T06:56:44.108Z,1.70
2023-05-02T06:59:48.095Z,1.60
2023-05-02T07:02:45.679Z,1.40
2023-05-02T07:05:42.880Z,1.80
2023-05-02T07:08:26.493Z,1.70
2023-05-02T07:17:22.788Z,1.50
2023-05-02T07:24:02.447Z,2.30
2023-05-02T07:26:55.075Z,2.20
2023-05-02T07:30:16.474Z,2.00
2023-05-02T07:36:35.280Z,1.40
2023-05-02T07:40:25.632Z,1.30
2023-05-02T07:43:13.882Z,1.20
2023-05-02T07:45:51.577Z,1.50
2023-05-02T07:48:33.564Z,4.00
2023-05-02T07:51:34.142Z,4.10
2023-05-02T08:00:04.202Z,1.00
2023-05-02T08:03:16.392Z,1.10
2023-05-02T08:06:14.667Z,1.00
2023-05-02T08:09:17.715Z,1.30
2023-05-02T08:16:29.762Z,1.10
2023-05-02T08:20:15.917Z,1.10
2023-05-02T08:30:32.568Z,1.00
2023-05-02T08:33:58.715Z,1.10
2023-05-02T08:37:23.712Z,1.30
2023-05-02T08:40:03.142Z,1.10
2023-05-02T08:42:46.898Z,0.90
2023-05-02T08:45:30.426Z,1.10
2023-05-02T08:49:09.928Z,1.60
2023-05-02T08:53:00.859Z,0.80
2023-05-02T08:56:35.551Z,1.70
2023-05-02T08:59:49.837Z,1.30
2023-05-02T09:03:23.665Z,0.70
2023-05-02T09:10:49.647Z,1.00
2023-05-02T09:13:53.562Z,1.00
2023-05-02T09:16:38.827Z,0.90
2023-05-02T09:20:04.007Z,0.70
2023-05-02T09:23:05.523Z,1.00
2023-05-02T09:30:30.688Z,0.90
2023-05-02T09:33:31.406Z,1.10
2023-05-02T09:36:30.900Z,1.40
2023-05-02T09:39:34.871Z,0.90
2023-05-02T09:42:46.864Z,1.10
2023-05-02T09:56:08.237Z,0.90
2023-05-02T09:59:23.489Z,0.90
2023-05-02T10:03:29.805Z,1.00
2023-05-02T10:06:06.577Z,0.80
2023-05-02T10:17:07.248Z,1.20
2023-05-02T10:20:41.469Z,1.10
2023-05-02T10:24:16.734Z,1.20
2023-05-02T10:27:06.436Z,1.00
2023-05-02T10:30:50.600Z,1.30
2023-05-02T10:33:37.168Z,1.00
2023-05-02T10:36:37.557Z,1.00
2023-05-02T10:40:10.389Z,1.60
2023-05-02T10:46:56.756Z,1.00
2023-05-02T10:55:28.455Z,1.20
2023-05-02T10:58:50.484Z,1.10
2023-05-02T11:02:17.930Z,1.20
2023-05-02T11:06:05.637Z,1.10
2023-05-02T11:18:24.177Z,1.00
2023-05-02T11:30:58.885Z,1.10
2023-05-02T11:34:25.009Z,1.30
2023-05-02T11:37:51.017Z,1.50
2023-05-02T11:52:24.734Z,1.10
2023-05-02T11:56:48.470Z,1.20
2023-05-02T12:00:45.270Z,1.00
2023-05-02T12:03:47.481Z,1.10
2023-05-02T12:06:39.301Z,1.30
2023-05-02T12:16:27.767Z,1.30
2023-05-02T12:23:51.259Z,1.40
2023-05-02T12:26:47.384Z,1.10
2023-05-02T12:30:05.005Z,1.30
2023-05-02T12:33:37.507Z,1.20
2023-05-02T12:46:44.399Z,0.80
2023-05-02T12:50:04.004Z,1.40
2023-05-02T12:53:14.207Z,0.90
2023-05-02T12:56:48.850Z,1.50
2023-05-02T13:08:27.408Z,0.90
2023-05-02T13:11:14.854Z,0.90
2023-05-02T13:23:25.021Z,1.20
2023-05-02T13:33:23.145Z,1.30
2023-05-02T13:58:34.551Z,1.00
2023-05-02T14:10:48.680Z,1.10
2023-05-02T14:30:35.041Z,1.20
2023-05-02T14:34:13.764Z,1.70
2023-05-02T14:36:59.122Z,1.40
2023-05-02T14:40:25.571Z,1.00
2023-05-02T14:43:30.020Z,1.30
2023-05-02T14:46:16.842Z,1.40
2023-05-02T15:12:52.334Z,1.10
2023-05-02T15:24:31.190Z,1.10
2023-05-02T15:27:25.445Z,1.20
2023-05-02T15:34:42.598Z,1.20
2023-05-02T15:38:33.338Z,1.10
2023-05-02T15:46:48.977Z,1.70
2023-05-02T15:53:40.314Z,1.40
2023-05-02T16:21:00.636Z,1.40
2023-05-02T17:20:18.960Z,1.60
2023-05-02T17:37:49.382Z,2.40
2023-05-02T18:01:33.601Z,2.60
2023-05-02T18:30:50.375Z,2.60
2023-05-02T18:33:57.023Z,2.90
2023-05-02T18:42:26.912Z,4.10
2023-05-02T18:45:47.369Z,5.70
2023-05-02T19:31:05.566Z,3.40
2023-05-02T19:34:58.197Z,2.90
2023-05-02T19:37:51.469Z,2.60
2023-05-02T19:50:07.670Z,4.20
2023-05-02T20:11:24.925Z,1.90
2023-05-02T20:14:24.486Z,1.50
2023-05-02T20:21:18.618Z,1.40
2023-05-02T20:28:34.726Z,1.10
2023-05-02T20:32:02.983Z,1.60
2023-05-02T20:36:11.049Z,1.40
2023-05-02T20:38:49.413Z,1.20
2023-05-02T20:41:39.996Z,1.40
2023-05-02T20:44:48.701Z,1.20
2023-05-02T20:48:18.028Z,1.50
2023-05-02T20:56:01.188Z,1.60
2023-05-02T20:59:31.676Z,1.50
2023-05-02T21:03:19.251Z,1.50
2023-05-02T21:06:00.628Z,1.80
2023-05-02T21:09:04.779Z,1.50
2023-05-02T21:11:47.820Z,1.40
2023-05-02T21:15:04.059Z,1.70
2023-05-02T21:18:07.727Z,2.10
2023-05-02T21:20:56.983Z,1.60
2023-05-02T21:24:03.509Z,1.50
2023-05-02T21:31:51.936Z,2.00
2023-05-02T21:39:56.853Z,3.00
2023-05-02T21:42:47.972Z,2.90
2023-05-02T21:45:54.404Z,2.60
2023-05-02T21:48:46.209Z,2.00
2023-05-02T21:51:39.772Z,2.30
2023-05-02T21:54:27.533Z,2.20
2023-05-02T22:01:24.460Z,2.20
2023-05-02T22:04:13.046Z,2.20
2023-05-02T22:06:58.676Z,2.00
2023-05-02T22:09:48.522Z,2.40
2023-05-02T22:12:36.492Z,1.90
2023-05-02T22:15:22.474Z,2.30
2023-05-02T22:18:30.194Z,2.50
2023-05-02T22:21:22.428Z,2.60
2023-05-02T22:24:20.199Z,2.40
2023-05-02T22:27:06.794Z,2.10
2023-05-02T22:29:59.210Z,2.50
2023-05-02T22:32:46.983Z,2.30
2023-05-02T22:35:38.372Z,2.60
2023-05-02T22:38:17.104Z,2.30
2023-05-02T22:41:13.981Z,2.50
2023-05-02T22:44:11.880Z,2.30
2023-05-02T22:46:49.633Z,2.90
2023-05-02T22:50:21.195Z,3.70
2023-05-02T22:53:05.032Z,4.40
2023-05-02T22:55:44.910Z,4.50
2023-05-02T22:58:28.413Z,6.60
2023-05-02T23:01:12.206Z,7.70
2023-05-02T23:04:38.598Z,7.90
2023-05-02T23:07:28.858Z,7.30
2023-05-02T23:10:18.016Z,7.20
2023-05-02T23:12:58.863Z,5.60
2023-05-02T23:15:29.215Z,6.80
2023-05-02T23:18:23.282Z,6.30
2023-05-02T23:21:04.332Z,5.20
2023-05-02T23:24:15.550Z,4.30
2023-05-02T23:29:33.494Z,2.80
2023-05-02T23:32:15.893Z,3.70
2023-05-02T23:37:30.009Z,3.20
2023-05-02T23:40:11.672Z,3.70
2023-05-02T23:42:45.117Z,4.10
2023-05-02T23:45:19.902Z,3.30
2023-05-02T23:48:00.039Z,3.00
2023-05-02T23:50:33.399Z,2.90
2023-05-02T23:53:17.592Z,3.30
2023-05-02T23:55:58.251Z,3.20
2023-05-02T23:59:01.306Z,2.40
